| time (UTC) | temp C | wind direction | speed KPH | gust KPH | rain 1hr cm | rain 24hr cm | rain mn cm | humidity % | barometer mb |
| 20260506201946 | -17 | 349 | 0.0 | 3.2 | 0.10 | 1.32 | 0.86 | ||
| 20260506201432 | -17 | 8 | 0.0 | 3.2 | 0.10 | 1.32 | 0.86 | ||
| 20260506200939 | -17 | 10 | 0.0 | 0.0 | 0.10 | 1.83 | 0.86 | ||
| 20260506200446 | -17 | 10 | 0.0 | 0.0 | 0.13 | 1.83 | 0.86 | ||
| 20260506195949 | -17 | 10 | 0.0 | 0.0 | 0.10 | 1.80 | 0.84 | ||
| 20260506195434 | -17 | 10 | 0.0 | 0.0 | 0.10 | 1.80 | 0.84 | ||
| 20260506194942 | -17 | 10 | 0.0 | 6.4 | 0.08 | 1.78 | 0.81 | ||
| 20260506194428 | -17 | 323 | 1.6 | 6.4 | 0.10 | 1.78 | 0.81 | ||
| 20260506193955 | -17 | 348 | 0.0 | 1.6 | 0.10 | 1.78 | 0.81 | ||
| 20260506193441 | -17 | 348 | 0.0 | 0.0 | 0.10 | 1.78 | 0.81 | ||
| 20260506192929 | -17 | 4 | 0.0 | 0.0 | 0.08 | 1.75 | 0.79 | ||
| 20260506192437 | -17 | 14 | 0.0 | 0.0 | 0.08 | 1.75 | 0.79 | ||
| 20260506191944 | -17 | 14 | 0.0 | 0.0 | 0.05 | 1.73 | 0.76 | ||
| 20260506191432 | -17 | 14 | 0.0 | 0.0 | 0.05 | 1.73 | 0.76 | ||
| 20260506191007 | -17 | 16 | 0.0 | 0.0 | 0.05 | 2.03 | 0.76 | ||
| 20260506190432 | -17 | 16 | 0.0 | 0.0 | 0.03 | 2.01 | 0.74 | ||
| 20260506190007 | -17 | 17 | 0.0 | 0.0 | 0.03 | 2.01 | 0.74 | ||
| 20260506185433 | -17 | 17 | 0.0 | 0.0 | 0.03 | 2.01 | 0.74 | ||
| 20260506184940 | -17 | 17 | 0.0 | 0.0 | 0.03 | 2.01 | 0.74 | ||
| 20260506184431 | -17 | 17 | 0.0 | 0.0 | 0.00 | 1.98 | 0.71 | ||
| 20260506183934 | -17 | 18 | 0.0 | 0.0 | 0.00 | 1.98 | 0.71 | ||
| 20260506183442 | -17 | 23 | 0.0 | 0.0 | 0.00 | 1.98 | 0.71 | ||
| 20260506182929 | -17 | 23 | 0.0 | 0.0 | 0.00 | 1.98 | 0.71 | ||
| 20260506182438 | -17 | 24 | 0.0 | 0.0 | 0.00 | 1.98 | 0.71 | ||
| 20260506181925 | -17 | 24 | 0.0 | 0.0 | 0.03 | 1.98 | 0.71 | ||
| 20260506181431 | -17 | 24 | 0.0 | 0.0 | 0.03 | 1.98 | 0.71 | ||
| 20260506180958 | -17 | 24 | 0.0 | 0.0 | 0.03 | 2.08 | 0.71 | ||
| 20260506180443 | -17 | 25 | 0.0 | 0.0 | 0.05 | 2.08 | 0.71 | ||
| 20260506175931 | -17 | 25 | 0.0 | 0.0 | 0.05 | 2.08 | 0.71 | ||
| 20260506175438 | -17 | 25 | 0.0 | 0.0 | 0.05 | 2.08 | 0.71 | ||
| 20260506174945 | -17 | 25 | 0.0 | 0.0 | 0.08 | 2.08 | 0.71 | ||
| 20260506174434 | -17 | 31 | 0.0 | 0.0 | 0.08 | 2.08 | 0.71 | ||
| 20260506173940 | -17 | 31 | 0.0 | 0.0 | 0.10 | 2.08 | 0.71 | ||
| 20260506173428 | -17 | 31 | 0.0 | 0.0 | 0.10 | 2.08 | 0.71 | ||
| 20260506172935 | -17 | 31 | 0.0 | 4.8 | 0.13 | 2.08 | 0.71 | ||
| 20260506172442 | -17 | 31 | 0.0 | 4.8 | 0.15 | 2.08 | 0.71 | ||
| 20260506171930 | -17 | 35 | 0.0 | 0.0 | 0.13 | 2.06 | 0.69 | ||
| 20260506171436 | -17 | 35 | 0.0 | 0.0 | 0.15 | 2.06 | 0.69 | ||
| 20260506170939 | -17 | 35 | 0.0 | 0.0 | 0.18 | 2.06 | 0.69 | ||
| 20260506170427 | -17 | 36 | 0.0 | 0.0 | 0.15 | 2.03 | 0.66 | ||
| 20260506165935 | -17 | 36 | 0.0 | 0.0 | 0.18 | 2.03 | 0.66 | ||
| 20260506165502 | -17 | 35 | 0.0 | 0.0 | 0.20 | 2.03 | 0.66 | ||
| 20260506164927 | -17 | 35 | 0.0 | 3.2 | 0.18 | 2.01 | 0.64 | ||
| 20260506164434 | -17 | 35 | 0.0 | 3.2 | 0.20 | 2.01 | 0.64 | ||
| 20260506163941 | -17 | 35 | 0.0 | 3.2 | 0.18 | 1.98 | 0.61 | ||
| 20260506163429 | -17 | 29 | 0.0 | 8.0 | 0.20 | 1.98 | 0.61 | ||
| 20260506163002 | -17 | 27 | 1.6 | 8.0 | 0.18 | 1.96 | 0.58 | ||
| 20260506162428 | -17 | 29 | 1.6 | 6.4 | 0.18 | 1.93 | 0.56 | ||
| 20260506161935 | -17 | 10 | 3.2 | 9.7 | 0.18 | 1.93 | 0.56 | ||
| 20260506161443 | -17 | 37 | 4.8 | 9.7 | 0.15 | 1.91 | 0.53 | ||
| 20260506160929 | -17 | 31 | 4.8 | 8.0 | 0.13 | 1.88 | 0.51 | ||
| 20260506160436 | -17 | 33 | 0.0 | 6.4 | 0.13 | 1.88 | 0.51 | ||
| 20260506160004 | -17 | 31 | 1.6 | 8.0 | 0.10 | 1.85 | 0.48 | ||
| 20260506155428 | -17 | 31 | 3.2 | 8.0 | 0.08 | 1.83 | 0.46 | ||
| 20260506154931 | -17 | 28 | 0.0 | 9.7 | 0.08 | 1.83 | 0.46 | ||
| 20260506154438 | -17 | 345 | 4.8 | 9.7 | 0.05 | 1.80 | 0.43 | ||
| 20260506154003 | -17 | 27 | 0.0 | 4.8 | 0.05 | 1.80 | 0.43 | ||
| 20260506153428 | -17 | 81 | 0.0 | 4.8 | 0.05 | 1.78 | 0.41 | ||
| 20260506152934 | -17 | 27 | 0.0 | 8.0 | 0.05 | 1.78 | 0.41 | ||
| 20260506152443 | -17 | 29 | 4.8 | 9.7 | 0.03 | 1.75 | 0.38 | ||
| 20260506151950 | -17 | 29 | 4.8 | 9.7 | 0.03 | 1.75 | 0.38 | ||
| 20260506151439 | -17 | 359 | 3.2 | 6.4 | 0.05 | 1.75 | 0.38 | ||
| 20260506150924 | -17 | 333 | 0.0 | 6.4 | 0.05 | 1.75 | 0.38 | ||
| 20260506150456 | -17 | 258 | 0.0 | 0.0 | 0.08 | 1.75 | 0.38 | ||
| 20260506145922 | -17 | 258 | 0.0 | 1.6 | 0.08 | 1.75 | 0.38 | ||
| 20260506145434 | -17 | 258 | 0.0 | 6.4 | 0.10 | 1.75 | 0.38 | ||
| 20260506144939 | -17 | 258 | 0.0 | 6.4 | 0.13 | 1.75 | 0.38 | ||
| 20260506144429 | -17 | 260 | 0.0 | 6.4 | 0.13 | 1.75 | 0.38 | ||
| 20260506143933 | -17 | 119 | 0.0 | 0.0 | 0.15 | 1.75 | 0.38 | ||
| 20260506143440 | -17 | 106 | 0.0 | 0.0 | 0.15 | 1.73 | 0.36 | ||
| 20260506142925 | -17 | 106 | 0.0 | 0.0 | 0.15 | 1.73 | 0.36 | ||
| 20260506142434 | -17 | 106 | 0.0 | 0.0 | 0.18 | 1.73 | 0.36 | ||
| 20260506141942 | -17 | 106 | 0.0 | 0.0 | 0.18 | 1.73 | 0.36 | ||
| 20260506141430 | -17 | 106 | 0.0 | 0.0 | 0.18 | 1.70 | 0.33 | ||
| 20260506140935 | -17 | 106 | 0.0 | 0.0 | 0.15 | 1.68 | 0.30 | ||
| 20260506140443 | -17 | 106 | 0.0 | 0.0 | 0.15 | 1.68 | 0.30 | ||
| 20260506135949 | -17 | 106 | 0.0 | 0.0 | 0.15 | 1.68 | 0.30 | ||
| 20260506135436 | -17 | 106 | 0.0 | 0.0 | 0.13 | 1.65 | 0.28 | ||
| 20260506134942 | -17 | 103 | 0.0 | 0.0 | 0.10 | 1.63 | 0.25 | ||
| 20260506134429 | -17 | 49 | 0.0 | 0.0 | 0.10 | 1.63 | 0.25 | ||
| 20260506133934 | -17 | 49 | 0.0 | 0.0 | 0.08 | 1.60 | 0.23 | ||
| 20260506133440 | -17 | 49 | 0.0 | 0.0 | 0.05 | 1.57 | 0.20 | ||
| 20260506132927 | -17 | 49 | 0.0 | 0.0 | 0.05 | 1.57 | 0.20 | ||
| 20260506132452 | -17 | 49 | 0.0 | 0.0 | 0.03 | 1.55 | 0.18 | ||
| 20260506131958 | -17 | 49 | 0.0 | 0.0 | 0.03 | 1.55 | 0.18 | ||
| 20260506131424 | -17 | 49 | 0.0 | 0.0 | 0.00 | 1.52 | 0.15 | ||
| 20260506130931 | -17 | 49 | 0.0 | 0.0 | 0.00 | 1.52 | 0.15 | ||
| 20260506130459 | -17 | 49 | 0.0 | 0.0 | 0.00 | 1.52 | 0.15 | ||
| 20260506125945 | -17 | 49 | 0.0 | 0.0 | 0.00 | 1.52 | 0.15 | ||
| 20260506125431 | -17 | 49 | 0.0 | 0.0 | 0.03 | 1.52 | 0.15 | ||
| 20260506124938 | -17 | 49 | 0.0 | 0.0 | 0.03 | 1.52 | 0.15 | ||
| 20260506124429 | -17 | 49 | 0.0 | 0.0 | 0.03 | 1.52 | 0.15 | ||
| 20260506123935 | -17 | 49 | 0.0 | 0.0 | 0.03 | 1.52 | 0.15 | ||
| 20260506123442 | -17 | 49 | 0.0 | 0.0 | 0.03 | 1.52 | 0.15 | ||
| 20260506122930 | -17 | 49 | 0.0 | 0.0 | 0.03 | 1.52 | 0.15 | ||
| 20260506122434 | -17 | 49 | 0.0 | 0.0 | 0.03 | 1.52 | 0.15 | ||
| 20260506121940 | -17 | 49 | 0.0 | 0.0 | 0.05 | 1.52 | 0.15 | ||
| 20260506121430 | -17 | 49 | 0.0 | 0.0 | 0.05 | 1.52 | 0.15 | ||
| 20260506120934 | -17 | 49 | 0.0 | 0.0 | 0.05 | 1.52 | 0.15 | ||
| 20260506120437 | -17 | 49 | 0.0 | 0.0 | 0.05 | 1.52 | 0.15 | ||
| 20260506115926 | -17 | 49 | 0.0 | 0.0 | 0.05 | 1.52 | 0.15 | ||
| 20260506115453 | -17 | 49 | 0.0 | 0.0 | 0.03 | 1.50 | 0.13 | ||
| 20260506115001 | -17 | 49 | 0.0 | 0.0 | 0.03 | 1.50 | 0.13 | ||
| 20260506114427 | -17 | 49 | 0.0 | 0.0 | 0.03 | 1.50 | 0.13 | ||
| 20260506113934 | -17 | 49 | 0.0 | 0.0 | 0.05 | 1.50 | 0.13 | ||
| 20260506113442 | -17 | 49 | 0.0 | 0.0 | 0.05 | 1.50 | 0.13 | ||
| 20260506112929 | -17 | 49 | 0.0 | 0.0 | 0.05 | 1.50 | 0.13 | ||
| 20260506112437 | -17 | 49 | 0.0 | 0.0 | 0.05 | 1.50 | 0.13 | ||
| 20260506111945 | -17 | 49 | 0.0 | 0.0 | 0.03 | 1.47 | 0.10 | ||
| 20260506111433 | -17 | 49 | 0.0 | 0.0 | 0.03 | 1.47 | 0.10 | ||
| 20260506110930 | -17 | 49 | 0.0 | 0.0 | 0.05 | 1.47 | 0.10 | ||
| 20260506110457 | -17 | 49 | 0.0 | 0.0 | 0.05 | 1.47 | 0.10 | ||
| 20260506105943 | -17 | 49 | 0.0 | 0.0 | 0.05 | 1.47 | 0.10 | ||
| 20260506105430 | -17 | 49 | 0.0 | 0.0 | 0.05 | 1.47 | 0.10 | ||
| 20260506104934 | -17 | 49 | 0.0 | 0.0 | 0.05 | 1.47 | 0.10 | ||
| 20260506104442 | -17 | 49 | 0.0 | 0.0 | 0.05 | 1.47 | 0.10 | ||
| 20260506103927 | -17 | 49 | 0.0 | 0.0 | 0.03 | 1.45 | 0.08 | ||
| 20260506103434 | -17 | 49 | 0.0 | 0.0 | 0.05 | 1.45 | 0.08 | ||
| 20260506102941 | -17 | 49 | 0.0 | 0.0 | 0.05 | 1.45 | 0.08 | ||
| 20260506102428 | -17 | 49 | 0.0 | 0.0 | 0.05 | 1.45 | 0.08 | ||
| 20260506101953 | -17 | 50 | 0.0 | 0.0 | 0.05 | 1.45 | 0.08 | ||
| 20260506101442 | -17 | 50 | 0.0 | 0.0 | 0.05 | 1.45 | 0.08 | ||
| 20260506100949 | -17 | 50 | 0.0 | 0.0 | 0.03 | 1.42 | 0.05 | ||
| 20260506100435 | -17 | 50 | 0.0 | 0.0 | 0.05 | 1.42 | 0.05 | ||
| 20260506095944 | -17 | 50 | 0.0 | 0.0 | 0.05 | 1.42 | 0.05 | ||
| 20260506095428 | -17 | 51 | 0.0 | 0.0 | 0.05 | 1.42 | 0.05 | ||
| 20260506094934 | -17 | 51 | 0.0 | 0.0 | 0.05 | 1.42 | 0.05 | ||
| 20260506094443 | -17 | 51 | 0.0 | 0.0 | 0.05 | 1.42 | 0.05 | ||
| 20260506093930 | -17 | 51 | 0.0 | 0.0 | 0.05 | 1.42 | 0.05 | ||
| 20260506093436 | -17 | 51 | 0.0 | 0.0 | 0.03 | 1.40 | 0.03 | ||
| 20260506093001 | -17 | 51 | 0.0 | 0.0 | 0.03 | 1.40 | 0.03 | ||
| 20260506092427 | -17 | 52 | 0.0 | 0.0 | 0.03 | 1.40 | 0.03 | ||
| 20260506091935 | -17 | 52 | 0.0 | 0.0 | 0.03 | 1.40 | 0.03 | ||
| 20260506091443 | -17 | 52 | 0.0 | 0.0 | 0.03 | 1.40 | 0.03 | ||
| 20260506090928 | -17 | 52 | 0.0 | 0.0 | 0.03 | 1.40 | 0.03 | ||
| 20260506090435 | -17 | 52 | 0.0 | 0.0 | 0.00 | 1.37 | 0.00 | ||
| 20260506085942 | -17 | 52 | 0.0 | 0.0 | 0.00 | 1.37 | 0.00 | ||
| 20260506085428 | -17 | 52 | 0.0 | 0.0 | 0.00 | 1.37 | 0.00 | ||
| 20260506084936 | -17 | 52 | 0.0 | 0.0 | 0.00 | 1.37 | 0.00 | ||
| 20260506084444 | -17 | 52 | 0.0 | 0.0 | 0.00 | 1.37 | 0.00 | ||
| 20260506083930 | -17 | 52 | 0.0 | 0.0 | 0.00 | 1.37 | 0.00 | ||
| 20260506083435 | -17 | 52 | 0.0 | 0.0 | 0.00 | 1.37 | 0.00 | ||
| 20260506082942 | -17 | 52 | 0.0 | 0.0 | 0.00 | 1.37 | 0.00 | ||
| 20260506082429 | -17 | 52 | 0.0 | 0.0 | 0.00 | 1.37 | 0.00 | ||
| 20260506081933 | -17 | 52 | 0.0 | 0.0 | 0.00 | 1.37 | 0.00 | ||
| 20260506081442 | -17 | 52 | 0.0 | 0.0 | 0.00 | 1.37 | 0.00 | ||
| 20260506080928 | -17 | 52 | 0.0 | 0.0 | 0.00 | 1.37 | 0.00 | ||
| 20260506080436 | -17 | 52 | 0.0 | 0.0 | 0.00 | 1.37 | 0.00 | ||
| 20260506073431 | -17 | 52 | 0.0 | 4.8 | 0.00 | 1.37 | 0.00 | ||
| 20260506072939 | -17 | 17 | 0.0 | 3.2 | 0.00 | 1.37 | 0.00 | ||
| 20260506072427 | -17 | 21 | 0.0 | 0.0 | 0.00 | 1.37 | 0.00 | ||
| 20260506071932 | -17 | 21 | 0.0 | 0.0 | 0.00 | 1.37 | 0.00 | ||
| 20260506071445 | -17 | 21 | 0.0 | 0.0 | 0.00 | 1.37 | 0.00 | ||
| 20260506070934 | -17 | 20 | 0.0 | 0.0 | 0.00 | 1.37 | 0.00 | ||
| 20260506070441 | -17 | 20 | 0.0 | 0.0 | 0.00 | 1.37 | 0.00 | ||
| 20260506062455 | -17 | 21 | 0.0 | 3.2 | 0.00 | 1.37 | 0.00 | ||
| 20260506061941 | -17 | 21 | 0.0 | 0.0 | 0.00 | 1.37 | 0.00 | ||
| 20260506061426 | -17 | 21 | 0.0 | 0.0 | 0.00 | 1.37 | 0.00 | ||
| 20260506060931 | -17 | 21 | 0.0 | 0.0 | 0.00 | 1.37 | 0.00 | ||
| 20260506060439 | -17 | 21 | 0.0 | 0.0 | 0.00 | 1.37 | 0.00 | ||
| 20260506050932 | -17 | 21 | 0.0 | 0.0 | 0.00 | 1.37 | 0.00 | ||
| 20260506050440 | -17 | 21 | 0.0 | 0.0 | 0.00 | 1.37 | 0.00 | ||
| 20260506044938 | -17 | 21 | 0.0 | 0.0 | 0.00 | 1.37 | 0.00 | ||
| 20260506044445 | -17 | 21 | 0.0 | 0.0 | 0.00 | 1.37 | 0.00 | ||
| 20260506043929 | -17 | 21 | 0.0 | 0.0 | 0.00 | 1.37 | 0.00 | ||
| 20260506043434 | -17 | 21 | 0.0 | 0.0 | 0.00 | 1.37 | 0.00 | ||
| 20260506042940 | -17 | 21 | 0.0 | 0.0 | 0.00 | 1.37 | 0.00 | ||
| 20260506042428 | -17 | 21 | 0.0 | 0.0 | 0.00 | 1.37 | 0.00 | ||
| 20260506041935 | -17 | 21 | 0.0 | 0.0 | 0.00 | 1.37 | 0.00 | ||
| 20260506041444 | -17 | 21 | 0.0 | 0.0 | 0.00 | 1.37 | 0.00 | ||
| 20260506040956 | -17 | 25 | 0.0 | 0.0 | 0.00 | 1.37 | 1.37 | ||
| 20260506040422 | -17 | 25 | 0.0 | 0.0 | 0.00 | 1.37 | 1.37 | ||
| 20260506035927 | -17 | 35 | 0.0 | 0.0 | 0.00 | 1.37 | 1.37 | ||
| 20260506035435 | -17 | 35 | 0.0 | 0.0 | 0.00 | 1.37 | 1.37 | ||
| 20260506034941 | -17 | 35 | 0.0 | 0.0 | 0.00 | 1.37 | 1.37 | ||
| 20260506034430 | -17 | 35 | 0.0 | 0.0 | 0.00 | 1.37 | 1.37 | ||
| 20260506033933 | -17 | 35 | 0.0 | 0.0 | 0.00 | 1.37 | 1.37 | ||
| 20260506033442 | -17 | 35 | 0.0 | 3.2 | 0.00 | 1.37 | 1.37 | ||
| 20260506032949 | -17 | 35 | 0.0 | 3.2 | 0.00 | 1.37 | 1.37 | ||
| 20260506032436 | -17 | 38 | 0.0 | 0.0 | 0.00 | 1.37 | 1.37 | ||
| 20260506031942 | -17 | 38 | 0.0 | 0.0 | 0.00 | 1.37 | 1.37 | ||
| 20260506031430 | -17 | 38 | 0.0 | 0.0 | 0.00 | 1.37 | 1.37 | ||
| 20260506030934 | -17 | 38 | 0.0 | 0.0 | 0.00 | 1.37 | 1.37 | ||
| 20260506030422 | -17 | 38 | 0.0 | 0.0 | 0.00 | 1.37 | 1.37 | ||
| 20260506025956 | -17 | 38 | 0.0 | 0.0 | 0.00 | 1.37 | 1.37 | ||
| 20260506025444 | -17 | 38 | 0.0 | 0.0 | 0.00 | 1.37 | 1.37 | ||
| 20260506024947 | -17 | 38 | 0.0 | 0.0 | 0.00 | 1.37 | 1.37 | ||
| 20260506024432 | -17 | 38 | 0.0 | 0.0 | 0.00 | 1.37 | 1.37 | ||
| 20260506023938 | -17 | 38 | 0.0 | 0.0 | 0.00 | 1.37 | 1.37 | ||
| 20260506023424 | -17 | 38 | 0.0 | 0.0 | 0.00 | 1.37 | 1.37 | ||
| 20260506022951 | -17 | 38 | 0.0 | 0.0 | 0.00 | 1.37 | 1.37 | ||
| 20260506022437 | -17 | 38 | 0.0 | 0.0 | 0.00 | 1.37 | 1.37 | ||
| 20260506021946 | -17 | 38 | 0.0 | 0.0 | 0.00 | 1.37 | 1.37 | ||
| 20260506021501 | -17 | 38 | 0.0 | 0.0 | 0.00 | 1.37 | 1.37 | ||
| 20260506020945 | -17 | 38 | 0.0 | 0.0 | 0.00 | 1.37 | 1.37 | ||
| 20260506020433 | -17 | 38 | 0.0 | 0.0 | 0.00 | 1.37 | 1.37 | ||
| 20260506020007 | -17 | 38 | 0.0 | 0.0 | 0.00 | 1.37 | 1.37 | ||
| 20260506015432 | -17 | 37 | 0.0 | 0.0 | 0.00 | 1.37 | 1.37 | ||
| 20260506014956 | -17 | 37 | 0.0 | 0.0 | 0.00 | 1.37 | 1.37 | ||
| 20260506014443 | -17 | 20 | 0.0 | 0.0 | 0.00 | 1.37 | 1.37 | ||
| 20260506013928 | -17 | 20 | 0.0 | 4.8 | 0.00 | 1.37 | 1.37 | ||
| 20260506013435 | -17 | 44 | 1.6 | 4.8 | 0.00 | 1.37 | 1.37 | ||
| 20260506012943 | -17 | 91 | 1.6 | 4.8 | 0.00 | 1.37 | 1.37 | ||
| 20260506012450 | -17 | 29 | 0.0 | 1.6 | 0.00 | 1.37 | 1.37 | ||
| 20260506011932 | -17 | 28 | 0.0 | 6.4 | 0.00 | 1.37 | 1.37 | ||
| 20260506011442 | -17 | 341 | 1.6 | 6.4 | 0.00 | 1.37 | 1.37 | ||
| 20260506010947 | -17 | 347 | 0.0 | 6.4 | 0.00 | 1.37 | 1.37 | ||
| 20260506010500 | -17 | 20 | 3.2 | 6.4 | 0.03 | 1.37 | 1.37 | ||
| 20260506005946 | -17 | 325 | 0.0 | 0.0 | 0.05 | 1.37 | 1.37 | ||
| 20260506005434 | -17 | 335 | 0.0 | 4.8 | 0.08 | 1.37 | 1.37 | ||
| 20260506004940 | -17 | 335 | 0.0 | 4.8 | 0.10 | 1.37 | 1.37 | ||
| 20260506004431 | -17 | 306 | 0.0 | 8.0 | 0.13 | 1.37 | 1.37 | ||
| 20260506003934 | -17 | 347 | 1.6 | 9.7 | 0.15 | 1.37 | 1.37 | ||
| 20260506003459 | -17 | 354 | 3.2 | 9.7 | 0.15 | 1.37 | 1.37 | ||
| 20260506002924 | -17 | 16 | 1.6 | 9.7 | 0.15 | 1.37 | 1.37 | ||
| 20260506002451 | -17 | 344 | 4.8 | 9.7 | 0.15 | 1.37 | 1.37 | ||
| 20260506001956 | -17 | 354 | 3.2 | 6.4 | 0.15 | 1.37 | 1.37 | ||
| 20260506001442 | -17 | 339 | 1.6 | 6.4 | 0.15 | 1.37 | 1.37 | ||
| 20260506000948 | -17 | 339 | 3.2 | 6.4 | 0.15 | 1.37 | 1.37 | ||
| 20260506000438 | -17 | 194 | 0.0 | 0.0 | 0.13 | 1.35 | 1.35 | ||
| 20260505235942 | -17 | 194 | 0.0 | 0.0 | 0.10 | 1.32 | 1.32 | ||
| 20260505235427 | -17 | 194 | 0.0 | 0.0 | 0.08 | 1.30 | 1.30 | ||
| 20260505234935 | -17 | 191 | 0.0 | 0.0 | 0.05 | 1.27 | 1.27 | ||
| 20260505234443 | -17 | 168 | 0.0 | 0.0 | 0.00 | 1.22 | 1.22 | ||
| 20260505233930 | -17 | 164 | 0.0 | 0.0 | 0.00 | 1.22 | 1.22 | ||
| 20260505233439 | -17 | 164 | 0.0 | 0.0 | 0.00 | 1.22 | 1.22 | ||
| 20260505233000 | -17 | 174 | 0.0 | 0.0 | 0.00 | 1.22 | 1.22 | ||
| 20260505232428 | -17 | 177 | 0.0 | 0.0 | 0.00 | 1.22 | 1.22 | ||
| 20260505231936 | -17 | 189 | 0.0 | 0.0 | 0.00 | 1.22 | 1.22 | ||
| 20260505231426 | -17 | 210 | 0.0 | 0.0 | 0.00 | 1.22 | 1.22 | ||
| 20260505230954 | -17 | 210 | 0.0 | 0.0 | 0.00 | 1.22 | 1.22 | ||
| 20260505230441 | -17 | 210 | 0.0 | 1.6 | 0.00 | 1.22 | 1.22 | ||
| 20260505225928 | -17 | 209 | 0.0 | 1.6 | 0.00 | 1.22 | 1.22 | ||
| 20260505225436 | -17 | 204 | 0.0 | 4.8 | 0.00 | 1.22 | 1.22 | ||
| 20260505224943 | -17 | 204 | 1.6 | 4.8 | 0.00 | 1.22 | 1.22 | ||
| 20260505224452 | -17 | 174 | 0.0 | 4.8 | 0.00 | 1.22 | 1.22 | ||
| 20260505223934 | -17 | 226 | 0.0 | 4.8 | 0.00 | 1.22 | 1.22 | ||
| 20260505223442 | -17 | 192 | 0.0 | 4.8 | 0.00 | 1.22 | 1.22 | ||
| 20260505222951 | -17 | 189 | 0.0 | 6.4 | 0.00 | 1.22 | 1.22 | ||
| 20260505222434 | -17 | 190 | 1.6 | 6.4 | 0.00 | 1.22 | 1.22 | ||
| 20260505221938 | -17 | 175 | 0.0 | 8.0 | 0.00 | 1.22 | 1.22 | ||
| 20260505221424 | -17 | 199 | 1.6 | 11.3 | 0.00 | 1.22 | 1.22 | ||
| 20260505220931 | -17 | 198 | 1.6 | 11.3 | 0.00 | 1.22 | 1.22 | ||
| 20260505220438 | -17 | 214 | 4.8 | 9.7 | 0.00 | 1.22 | 1.22 | ||
| 20260505215927 | -17 | 169 | 1.6 | 4.8 | 0.00 | 1.22 | 1.22 | ||
| 20260505215431 | -17 | 170 | 0.0 | 6.4 | 0.00 | 1.22 | 1.22 | ||
| 20260505214939 | -17 | 165 | 0.0 | 6.4 | 0.00 | 1.22 | 1.22 | ||
| 20260505214445 | -17 | 187 | 1.6 | 6.4 | 0.03 | 1.22 | 1.22 | ||
| 20260505213931 | -17 | 185 | 0.0 | 1.6 | 0.05 | 1.22 | 1.22 | ||
| 20260505213438 | -17 | 164 | 0.0 | 1.6 | 0.10 | 1.22 | 1.22 | ||
| 20260505212944 | -17 | 181 | 0.0 | 6.4 | 0.15 | 1.22 | 1.22 | ||
| 20260505212432 | -17 | 189 | 1.6 | 6.4 | 0.20 | 1.22 | 1.22 | ||
| 20260505211958 | -17 | 158 | 0.0 | 3.2 | 0.25 | 1.22 | 1.22 | ||
| 20260505211425 | -17 | 163 | 0.0 | 6.4 | 0.30 | 1.22 | 1.22 | ||
| 20260505210936 | -17 | 211 | 1.6 | 6.4 | 0.36 | 1.22 | 1.22 | ||
| 20260505210438 | -17 | 166 | 1.6 | 12.9 | 0.43 | 1.22 | 1.22 | ||
| 20260505205925 | -17 | 208 | 4.8 | 12.9 | 0.51 | 1.22 | 1.22 | ||
| 20260505205432 | -17 | 226 | 1.6 | 8.0 | 0.58 | 1.22 | 1.22 | ||
| 20260505205000 | -17 | 285 | 1.6 | 6.4 | 0.66 | 1.22 | 1.22 | ||
| 20260505204427 | -17 | 264 | 0.0 | 11.3 | 0.71 | 1.19 | 1.19 | ||
| 20260505203930 | -17 | 224 | 1.6 | 12.9 | 0.74 | 1.14 | 1.14 | ||
| 20260505203437 | -17 | 219 | 4.8 | 12.9 | 0.71 | 1.12 | 1.12 | ||
| 20260505202944 | -17 | 170 | 0.0 | 3.2 | 0.66 | 1.07 | 1.07 | ||
| 20260505202453 | -17 | 183 | 0.0 | 3.2 | 0.61 | 1.02 | 1.02 |